createdAt,value
2023-05-01T00:00:05.752Z,47.70
2023-05-01T00:02:38.452Z,51.80
2023-05-01T00:05:08.400Z,55.90
2023-05-01T00:07:38.205Z,60.10
2023-05-01T00:10:07.623Z,63.50
2023-05-01T00:12:36.170Z,67.50
2023-05-01T00:15:05.024Z,68.90
2023-05-01T00:17:33.719Z,72.10
2023-05-01T00:20:05.481Z,77.30
2023-05-01T00:22:34.208Z,84.90
2023-05-01T00:25:03.015Z,90.10
2023-05-01T00:27:32.419Z,93.60
2023-05-01T00:30:01.795Z,96.70
2023-05-01T00:32:34.564Z,99.50
2023-05-01T00:35:04.859Z,99.90
2023-05-01T00:37:34.004Z,99.90
2023-05-01T00:40:03.116Z,99.90
2023-05-01T00:42:36.278Z,99.90
2023-05-01T00:45:05.282Z,99.90
2023-05-01T00:47:34.981Z,99.90
2023-05-01T00:50:05.384Z,99.90
2023-05-01T00:52:34.125Z,99.90
2023-05-01T00:55:03.143Z,99.90
2023-05-01T00:57:32.815Z,99.90
2023-05-01T01:00:01.332Z,99.90
2023-05-01T01:02:33.233Z,99.90
2023-05-01T01:05:01.880Z,99.90
2023-05-01T01:07:41.157Z,99.90
2023-05-01T01:10:20.367Z,99.90
2023-05-01T01:12:55.952Z,99.90
2023-05-01T01:15:31.718Z,99.90
2023-05-01T01:18:08.432Z,99.90
2023-05-01T01:20:46.372Z,99.90
2023-05-01T01:23:54.464Z,99.90
2023-05-01T01:26:40.371Z,99.90
2023-05-01T01:29:28.025Z,1.00
2023-05-01T01:32:06.989Z,99.90
2023-05-01T01:34:41.900Z,99.90
2023-05-01T01:37:18.528Z,99.90
2023-05-01T01:39:54.337Z,99.90
2023-05-01T01:42:28.007Z,99.90
2023-05-01T01:44:59.994Z,99.90
2023-05-01T01:47:33.156Z,99.90
2023-05-01T01:50:08.337Z,99.90
2023-05-01T01:52:38.423Z,99.90
2023-05-01T01:55:12.134Z,99.90
2023-05-01T01:57:43.244Z,99.90
2023-05-01T02:00:14.467Z,99.90
2023-05-01T02:02:48.062Z,99.90
2023-05-01T02:05:20.358Z,99.90
2023-05-01T02:07:52.509Z,99.90
2023-05-01T02:10:22.456Z,99.90
2023-05-01T02:12:53.015Z,99.90
2023-05-01T02:15:23.671Z,99.90
2023-05-01T02:17:54.543Z,99.90
2023-05-01T02:20:25.401Z,99.90
2023-05-01T02:22:54.736Z,99.90
2023-05-01T02:25:23.598Z,99.90
2023-05-01T02:27:57.883Z,99.90
2023-05-01T02:30:26.485Z,99.90
2023-05-01T02:32:55.231Z,1.00
2023-05-01T02:35:25.329Z,1.00
2023-05-01T02:37:53.945Z,1.00
2023-05-01T02:40:22.689Z,1.00
2023-05-01T02:42:54.170Z,1.00
2023-05-01T02:45:25.996Z,1.00
2023-05-01T02:47:59.951Z,1.00
2023-05-01T02:50:30.723Z,1.00
2023-05-01T02:53:00.317Z,1.00
2023-05-01T02:55:51.719Z,1.00
2023-05-01T02:58:21.362Z,1.00
2023-05-01T03:00:50.913Z,99.90
2023-05-01T03:03:21.294Z,99.90
2023-05-01T03:05:51.908Z,99.90
2023-05-01T03:08:20.558Z,99.90
2023-05-01T03:10:49.049Z,99.90
2023-05-01T03:16:29.662Z,99.90
2023-05-01T03:18:58.400Z,99.90
2023-05-01T03:21:28.429Z,99.90
2023-05-01T03:23:57.483Z,99.90
2023-05-01T03:26:26.584Z,99.90
2023-05-01T03:28:57.201Z,99.90
2023-05-01T03:31:30.190Z,99.90
2023-05-01T03:34:20.191Z,99.90
2023-05-01T03:36:54.796Z,99.90
2023-05-01T03:39:25.342Z,99.90
2023-05-01T03:42:23.446Z,99.90
2023-05-01T03:44:57.946Z,99.90
2023-05-01T03:47:27.768Z,99.90
2023-05-01T04:09:35.065Z,99.90
2023-05-01T04:12:03.703Z,99.90
2023-05-01T04:14:32.383Z,99.90
2023-05-01T04:17:01.219Z,99.90
2023-05-01T04:19:32.351Z,99.90
2023-05-01T04:22:05.641Z,99.90
2023-05-01T04:24:37.643Z,99.90
2023-05-01T04:27:06.720Z,99.90
2023-05-01T04:29:35.281Z,99.90
2023-05-01T04:32:04.050Z,99.90
2023-05-01T04:34:32.659Z,99.90
2023-05-01T04:37:02.169Z,99.90
2023-05-01T04:39:31.328Z,99.90
2023-05-01T04:42:02.317Z,99.90
2023-05-01T04:44:30.936Z,99.90
2023-05-01T04:47:00.127Z,99.90
2023-05-01T04:49:28.734Z,99.90
2023-05-01T04:51:57.505Z,99.90
2023-05-01T04:54:30.539Z,99.90
2023-05-01T04:56:59.208Z,99.90
2023-05-01T04:59:29.206Z,99.90
2023-05-01T05:01:58.119Z,99.90
2023-05-01T05:04:27.200Z,99.90
2023-05-01T05:06:56.140Z,99.90
2023-05-01T05:09:33.165Z,99.90
2023-05-01T05:12:03.851Z,99.90
2023-05-01T05:14:34.728Z,99.90
2023-05-01T05:17:03.384Z,99.90
2023-05-01T05:19:32.552Z,99.90
2023-05-01T05:22:03.994Z,99.90
2023-05-01T05:24:36.253Z,99.90
2023-05-01T05:27:06.373Z,99.90
2023-05-01T05:29:36.604Z,99.90
2023-05-01T05:32:06.292Z,99.90
2023-05-01T05:34:35.272Z,99.90
2023-05-01T05:37:04.025Z,99.90
2023-05-01T05:39:33.139Z,99.90
2023-05-01T05:45:09.066Z,99.90
2023-05-01T05:47:37.819Z,99.90
2023-05-01T05:50:07.665Z,99.90
2023-05-01T05:52:37.563Z,99.90
2023-05-01T05:55:08.056Z,99.90
2023-05-01T05:57:37.867Z,99.90
2023-05-01T06:00:11.151Z,99.90
2023-05-01T06:02:47.363Z,99.90
2023-05-01T06:05:16.923Z,99.90
2023-05-01T06:07:45.660Z,99.90
2023-05-01T06:10:14.207Z,99.90
2023-05-01T06:12:45.416Z,99.90
2023-05-01T06:15:28.136Z,99.90
2023-05-01T06:17:57.661Z,99.90
2023-05-01T06:20:26.269Z,99.90
2023-05-01T06:22:54.962Z,99.90
2023-05-01T06:25:28.866Z,99.90
2023-05-01T06:27:57.804Z,99.90
2023-05-01T06:30:28.093Z,99.90
2023-05-01T06:32:56.669Z,99.90
2023-05-01T06:35:25.678Z,99.90
2023-05-01T06:37:56.134Z,99.90
2023-05-01T06:40:24.890Z,99.90
2023-05-01T06:42:53.813Z,99.90
2023-05-01T06:45:25.150Z,99.90
2023-05-01T06:47:55.223Z,99.90
2023-05-01T06:50:23.917Z,99.90
2023-05-01T06:52:52.495Z,99.90
2023-05-01T06:55:21.287Z,99.90
2023-05-01T06:57:49.845Z,99.90
2023-05-01T07:00:20.097Z,99.90
2023-05-01T07:02:48.854Z,99.90
2023-05-01T07:05:19.409Z,99.90
2023-05-01T07:07:57.952Z,99.90
2023-05-01T07:10:30.828Z,99.90
2023-05-01T07:12:59.395Z,99.90
2023-05-01T07:15:28.073Z,99.90
2023-05-01T07:17:58.444Z,99.90
2023-05-01T07:20:28.407Z,99.90
2023-05-01T07:22:57.060Z,99.90
2023-05-01T07:25:26.195Z,99.90
2023-05-01T07:27:55.024Z,99.90
2023-05-01T07:30:23.975Z,99.90
2023-05-01T07:32:52.998Z,99.90
2023-05-01T07:35:21.613Z,99.90
2023-05-01T07:37:53.130Z,99.90
2023-05-01T07:40:21.716Z,99.90
2023-05-01T07:42:51.939Z,99.90
2023-05-01T07:45:22.413Z,99.90
2023-05-01T07:47:52.522Z,99.90
2023-05-01T07:50:22.819Z,99.90
2023-05-01T07:52:52.824Z,99.90
2023-05-01T07:55:23.403Z,99.90
2023-05-01T07:57:52.856Z,99.90
2023-05-01T08:00:21.661Z,99.90
2023-05-01T08:02:50.418Z,99.90
2023-05-01T08:05:18.977Z,99.90
2023-05-01T08:07:47.496Z,99.90
2023-05-01T08:10:17.748Z,99.90
2023-05-01T08:12:46.441Z,99.90
2023-05-01T08:15:15.119Z,99.90
2023-05-01T08:17:43.791Z,99.90
2023-05-01T08:20:14.022Z,99.90
2023-05-01T08:22:42.618Z,99.90
2023-05-01T08:25:11.225Z,99.90
2023-05-01T08:27:41.154Z,99.90
2023-05-01T08:30:10.121Z,99.90
2023-05-01T08:32:38.696Z,99.90
2023-05-01T08:35:07.823Z,99.90
2023-05-01T08:37:36.396Z,99.90
2023-05-01T08:40:08.912Z,99.90
2023-05-01T08:42:39.133Z,99.90
2023-05-01T08:45:11.961Z,99.90
2023-05-01T08:47:42.989Z,99.90
2023-05-01T08:50:12.592Z,99.90
2023-05-01T08:52:43.463Z,99.90
2023-05-01T08:55:22.904Z,99.90
2023-05-01T08:57:52.377Z,99.90
2023-05-01T09:00:23.167Z,99.90
2023-05-01T09:02:53.122Z,99.90
2023-05-01T09:05:22.387Z,99.90
2023-05-01T09:07:50.934Z,99.90
2023-05-01T09:10:28.397Z,99.90
2023-05-01T09:12:58.812Z,99.90
2023-05-01T09:15:30.171Z,99.90
2023-05-01T09:18:03.892Z,99.90
2023-05-01T09:20:33.245Z,99.90
2023-05-01T09:23:01.878Z,99.90
2023-05-01T09:25:30.995Z,99.90
2023-05-01T09:28:01.915Z,99.90
2023-05-01T09:30:36.578Z,99.90
2023-05-01T09:33:07.240Z,99.90
2023-05-01T09:35:53.690Z,99.90
2023-05-01T09:38:24.044Z,99.90
2023-05-01T09:40:56.618Z,99.90
2023-05-01T09:43:29.625Z,99.90
2023-05-01T09:46:05.085Z,99.90
2023-05-01T09:48:35.976Z,99.90
2023-05-01T09:51:25.342Z,99.90
2023-05-01T09:53:54.764Z,99.90
2023-05-01T09:56:23.959Z,99.90
2023-05-01T09:58:53.710Z,99.90
2023-05-01T10:01:42.301Z,99.90
2023-05-01T10:04:11.771Z,99.90
2023-05-01T10:06:41.536Z,99.90
2023-05-01T10:09:16.959Z,99.90
2023-05-01T10:11:50.294Z,99.90
2023-05-01T10:14:20.406Z,99.90
2023-05-01T10:16:52.971Z,99.90
2023-05-01T10:19:22.293Z,99.90
2023-05-01T10:21:51.195Z,99.90
2023-05-01T10:24:20.120Z,99.90
2023-05-01T10:26:50.276Z,99.90
2023-05-01T10:29:23.434Z,99.90
2023-05-01T10:31:53.455Z,99.90
2023-05-01T10:34:26.230Z,99.90
2023-05-01T10:37:01.915Z,99.90
2023-05-01T10:39:34.309Z,99.90
2023-05-01T10:42:11.420Z,99.90
2023-05-01T10:44:40.417Z,99.90
2023-05-01T10:47:48.688Z,99.90
2023-05-01T10:50:17.906Z,99.90
2023-05-01T10:53:19.599Z,99.90
2023-05-01T10:55:50.195Z,99.90
2023-05-01T10:59:09.840Z,99.90
2023-05-01T11:01:40.031Z,99.90
2023-05-01T11:04:51.498Z,99.90
2023-05-01T11:07:20.914Z,99.90
2023-05-01T11:09:54.411Z,99.90
2023-05-01T11:12:53.741Z,99.90
2023-05-01T11:15:32.565Z,99.90
2023-05-01T11:18:01.886Z,99.90
2023-05-01T11:20:50.956Z,99.90
2023-05-01T11:23:21.310Z,99.90
2023-05-01T11:25:51.756Z,99.90
2023-05-01T11:28:22.585Z,99.90
2023-05-01T11:30:51.335Z,99.90
2023-05-01T11:33:26.075Z,99.90
2023-05-01T11:36:01.392Z,99.90
2023-05-01T11:38:30.508Z,99.90
2023-05-01T11:41:04.271Z,99.90
2023-05-01T11:43:33.107Z,99.90
2023-05-01T11:46:04.447Z,99.90
2023-05-01T11:48:33.669Z,99.90
2023-05-01T11:51:13.812Z,99.90
2023-05-01T11:53:42.501Z,99.90
2023-05-01T11:56:28.941Z,99.90
2023-05-01T11:58:58.802Z,99.90
2023-05-01T12:01:37.296Z,99.90
2023-05-01T12:04:08.166Z,99.90
2023-05-01T12:06:44.677Z,99.90
2023-05-01T12:09:19.397Z,99.90
2023-05-01T12:11:52.280Z,99.90
2023-05-01T12:14:22.177Z,99.90
2023-05-01T12:16:50.906Z,99.90
2023-05-01T12:19:20.555Z,99.90
2023-05-01T12:22:06.542Z,99.90
2023-05-01T12:24:35.692Z,99.90
2023-05-01T12:27:07.448Z,99.90
2023-05-01T12:29:48.390Z,99.90
2023-05-01T12:35:34.752Z,99.90
2023-05-01T12:38:40.438Z,99.90
2023-05-01T12:41:13.388Z,99.90
2023-05-01T12:43:43.776Z,99.90
2023-05-01T12:46:16.826Z,99.90
2023-05-01T12:48:45.858Z,99.90
2023-05-01T12:51:20.096Z,99.90
2023-05-01T12:53:48.877Z,99.90
2023-05-01T12:56:24.928Z,99.90
2023-05-01T12:58:55.335Z,99.90
2023-05-01T13:01:27.817Z,99.90
2023-05-01T13:03:58.232Z,99.90
2023-05-01T13:06:34.217Z,99.90
2023-05-01T13:09:10.577Z,99.90
2023-05-01T13:11:40.692Z,99.90
2023-05-01T13:14:10.069Z,99.90
2023-05-01T13:16:46.853Z,99.90
2023-05-01T13:19:15.758Z,99.90
2023-05-01T13:21:51.279Z,99.90
2023-05-01T13:24:20.837Z,99.90
2023-05-01T13:27:03.498Z,99.90
2023-05-01T13:49:12.510Z,99.90
2023-05-01T13:51:43.829Z,99.90
2023-05-01T13:54:13.138Z,99.90
2023-05-01T13:56:42.353Z,99.90
2023-05-01T13:59:11.379Z,99.90
2023-05-01T14:01:46.656Z,99.90
2023-05-01T14:04:21.792Z,99.90
2023-05-01T14:06:50.743Z,99.90
2023-05-01T14:09:19.727Z,99.90
2023-05-01T14:11:49.424Z,99.90
2023-05-01T14:14:19.297Z,99.90
2023-05-01T14:16:49.576Z,99.90
2023-05-01T14:19:19.624Z,99.90
2023-05-01T14:21:48.293Z,99.90
2023-05-01T14:24:18.966Z,99.90
2023-05-01T14:26:50.240Z,99.90
2023-05-01T14:29:29.966Z,99.90
2023-05-01T14:32:05.397Z,99.90
2023-05-01T14:34:35.594Z,99.90
2023-05-01T14:37:04.100Z,99.90
2023-05-01T14:39:34.233Z,99.90
2023-05-01T14:42:02.981Z,99.90
2023-05-01T14:44:31.508Z,99.90
2023-05-01T14:47:00.484Z,99.90
2023-05-01T14:49:29.723Z,99.90
2023-05-01T14:51:59.668Z,99.90
2023-05-01T14:54:28.364Z,99.90
2023-05-01T14:56:56.843Z,99.90
2023-05-01T14:59:25.462Z,99.90
2023-05-01T15:01:54.052Z,99.90
2023-05-01T15:04:22.614Z,99.90
2023-05-01T15:06:52.038Z,99.90
2023-05-01T15:09:22.028Z,99.90
2023-05-01T15:11:50.500Z,99.90
2023-05-01T15:14:19.003Z,99.90
2023-05-01T15:16:47.711Z,99.90
2023-05-01T15:19:16.215Z,99.90
2023-05-01T15:21:44.678Z,99.90
2023-05-01T15:24:13.180Z,99.90
2023-05-01T15:26:43.044Z,99.90
2023-05-01T15:29:11.531Z,99.90
2023-05-01T15:31:40.156Z,99.90
2023-05-01T15:34:08.840Z,99.90
2023-05-01T15:36:37.410Z,99.90
2023-05-01T15:52:29.423Z,99.90
2023-05-01T15:54:59.432Z,99.90
2023-05-01T15:57:27.950Z,99.90
2023-05-01T15:59:56.730Z,99.90
2023-05-01T16:02:27.230Z,99.90
2023-05-01T16:04:56.071Z,99.90
2023-05-01T16:52:27.757Z,98.90
2023-05-01T16:54:56.569Z,98.80
2023-05-01T16:57:25.267Z,98.40
2023-05-01T16:59:53.857Z,97.30
2023-05-01T17:02:22.435Z,97.00
2023-05-01T17:04:51.130Z,96.60
2023-05-01T17:07:19.760Z,97.10
2023-05-01T17:09:49.591Z,96.70
2023-05-01T17:12:18.144Z,96.60
2023-05-01T17:14:46.758Z,96.70
2023-05-01T17:17:17.638Z,96.10
2023-05-01T17:19:46.197Z,96.40
2023-05-01T17:22:15.202Z,96.20
2023-05-01T17:24:43.854Z,96.10
2023-05-01T17:27:13.794Z,95.90
2023-05-01T17:29:42.473Z,95.50
2023-05-01T17:32:11.043Z,95.40
2023-05-01T17:34:39.554Z,95.40
2023-05-01T17:37:09.143Z,95.40
2023-05-01T17:39:37.627Z,95.10
2023-05-01T17:42:06.265Z,95.00
2023-05-01T17:44:36.162Z,94.80
2023-05-01T17:47:05.082Z,95.10
2023-05-01T17:49:34.160Z,94.50
2023-05-01T17:52:03.727Z,94.40
2023-05-01T17:54:32.237Z,94.50
2023-05-01T17:57:00.859Z,94.70
2023-05-01T17:59:30.850Z,95.10
2023-05-01T18:02:00.935Z,94.50
2023-05-01T18:04:29.600Z,94.80
2023-05-01T18:43:01.968Z,95.80
2023-05-01T18:45:30.948Z,96.70
2023-05-01T18:48:00.830Z,96.50
2023-05-01T18:50:29.765Z,96.60
2023-05-01T18:52:58.316Z,97.20
2023-05-01T18:55:27.013Z,97.60
2023-05-01T18:57:56.645Z,98.10
2023-05-01T19:00:27.082Z,98.90
2023-05-01T19:02:56.118Z,99.90
2023-05-01T19:05:25.318Z,99.90
2023-05-01T19:07:55.221Z,99.90
2023-05-01T19:10:23.868Z,99.90
2023-05-01T19:12:52.417Z,99.90
2023-05-01T19:15:21.058Z,99.90
2023-05-01T19:17:51.188Z,99.90
2023-05-01T19:20:19.832Z,99.90
2023-05-01T19:22:48.369Z,99.90
2023-05-01T19:25:16.926Z,99.90
2023-05-01T19:27:45.775Z,99.90
2023-05-01T19:30:15.232Z,99.90
2023-05-01T19:32:43.886Z,99.90
2023-05-01T19:35:13.821Z,99.90
2023-05-01T19:37:42.397Z,99.90
2023-05-01T19:40:11.708Z,99.90
2023-05-01T19:42:40.363Z,99.90
2023-05-01T19:45:10.017Z,99.90
2023-05-01T19:47:39.360Z,99.90
2023-05-01T19:50:09.575Z,99.90
2023-05-01T19:52:39.764Z,99.90
2023-05-01T19:55:09.644Z,99.90
2023-05-01T19:57:38.138Z,99.90
2023-05-01T20:00:08.931Z,99.90
2023-05-01T20:02:41.607Z,99.90
2023-05-01T20:05:10.828Z,99.90
2023-05-01T20:07:41.368Z,99.90
2023-05-01T20:10:10.877Z,99.90
2023-05-01T20:12:39.582Z,99.90
2023-05-01T20:15:09.339Z,99.90
2023-05-01T20:17:38.145Z,99.90
2023-05-01T20:20:07.879Z,99.90
2023-05-01T20:22:36.413Z,99.90
2023-05-01T20:25:09.474Z,99.90
2023-05-01T20:27:38.986Z,99.90
2023-05-01T20:30:10.400Z,99.90
2023-05-01T20:32:42.693Z,99.90
2023-05-01T20:35:12.231Z,99.90
2023-05-01T20:37:41.061Z,99.90
2023-05-01T20:40:12.904Z,99.90
2023-05-01T20:42:41.519Z,99.90
2023-05-01T20:45:11.791Z,99.40
2023-05-01T20:47:40.586Z,99.10
2023-05-01T20:50:09.789Z,99.40
2023-05-01T20:52:38.641Z,98.20
2023-05-01T20:55:08.242Z,97.60
2023-05-01T20:57:38.374Z,96.30
2023-05-01T21:00:08.343Z,96.10
2023-05-01T21:02:38.758Z,96.10
2023-05-01T21:05:09.097Z,95.50
2023-05-01T21:07:38.503Z,95.00
2023-05-01T21:10:08.527Z,94.90
2023-05-01T21:12:38.766Z,94.90
2023-05-01T21:15:08.175Z,94.40
2023-05-01T21:17:38.381Z,94.40
2023-05-01T21:20:12.963Z,94.80
2023-05-01T21:22:42.796Z,94.50
2023-05-01T21:25:11.737Z,94.20
2023-05-01T21:27:42.940Z,93.30
2023-05-01T21:30:16.358Z,92.80
2023-05-01T21:32:44.980Z,92.50
2023-05-01T21:35:17.262Z,92.60
2023-05-01T21:37:47.285Z,91.80
2023-05-01T21:40:15.904Z,91.90
2023-05-01T21:42:45.910Z,91.40
2023-05-01T21:45:15.952Z,90.60
2023-05-01T21:47:46.417Z,90.50
2023-05-01T21:50:18.676Z,90.00
2023-05-01T21:52:49.172Z,89.30
2023-05-01T21:55:19.645Z,88.20
2023-05-01T21:57:51.456Z,86.30
2023-05-01T22:00:20.839Z,85.10
2023-05-01T22:02:51.359Z,85.30
2023-05-01T22:05:22.485Z,84.60
2023-05-01T22:07:52.849Z,83.60
2023-05-01T22:10:21.938Z,82.40
2023-05-01T22:12:52.000Z,82.00
2023-05-01T22:15:20.751Z,82.50
2023-05-01T22:17:49.462Z,81.00
2023-05-01T22:20:18.186Z,80.70
2023-05-01T22:22:47.030Z,81.00
2023-05-01T22:25:16.737Z,79.40
2023-05-01T22:27:45.787Z,79.60
2023-05-01T22:30:16.171Z,79.60
2023-05-01T22:32:44.718Z,78.40
2023-05-01T22:35:13.277Z,79.00
2023-05-01T22:37:41.867Z,79.30
2023-05-01T22:40:11.356Z,78.80
2023-05-01T22:42:39.955Z,78.10
2023-05-01T22:45:08.982Z,77.50
2023-05-01T22:47:38.999Z,77.70
2023-05-01T22:50:10.263Z,79.10
2023-05-01T22:52:38.862Z,78.50
2023-05-01T22:55:08.301Z,79.10
2023-05-01T22:57:36.819Z,80.20
2023-05-01T23:00:06.655Z,80.60
2023-05-01T23:02:35.332Z,80.80
2023-05-01T23:05:05.895Z,80.80
2023-05-01T23:07:34.372Z,82.10
2023-05-01T23:10:02.993Z,81.20
2023-05-01T23:12:32.819Z,81.20
2023-05-01T23:15:01.427Z,80.90
2023-05-01T23:17:36.383Z,82.20
2023-05-01T23:20:08.689Z,81.20
2023-05-01T23:22:38.155Z,81.10
2023-05-01T23:25:07.954Z,80.70
2023-05-01T23:27:40.371Z,81.00
2023-05-01T23:30:10.272Z,95.70
2023-05-01T23:32:40.836Z,81.80
2023-05-01T23:35:17.218Z,82.90
2023-05-01T23:37:45.800Z,83.50
2023-05-01T23:40:14.527Z,84.10
2023-05-01T23:42:43.276Z,84.80
2023-05-01T23:45:17.058Z,85.90
2023-05-01T23:47:46.575Z,86.70
2023-05-01T23:50:16.687Z,87.20
2023-05-01T23:52:45.268Z,89.00
2023-05-01T23:55:14.336Z,90.00
2023-05-01T23:57:42.865Z,90.10
